Time;durP1;ratioP1;P1;durP2;ratioP2;P2;SDS_P1;SDS_P2;PMS_P1;PMS_P2;Temp;Humidity;BMP_temperature;BMP_pressure;BME280_temperature;BME280_humidity;BME280_pressure;Samples;Min_cycle;Max_cycle;Signal;HPM_P1;HPM_P2
2022/11/02 00:00:40;;;;;;;9.20;1.42;;;9.50;99.90;;;;;;5077872;28;20044;-71
2022/11/02 00:03:08;;;;;;;8.48;2.10;;;9.50;99.90;;;;;;5078482;28;20028;-71
2022/11/02 00:05:35;;;;;;;7.45;1.30;;;9.50;99.90;;;;;;5078138;28;20103;-71
2022/11/02 00:08:02;;;;;;;7.55;1.85;;;9.50;99.90;;;;;;5043651;28;20031;-71
2022/11/02 00:10:30;;;;;;;13.85;1.40;;;9.60;99.90;;;;;;5060434;28;20020;-71
2022/11/02 00:12:58;;;;;;;10.57;1.58;;;9.60;99.90;;;;;;5076640;28;20035;-71
2022/11/02 00:15:29;;;;;;;4.45;1.23;;;9.60;99.90;;;;;;5077506;28;20021;-71
2022/11/02 00:18:10;;;;;;;9.93;1.30;;;9.60;99.90;;;;;;5077668;28;20029;-71
2022/11/02 00:20:41;;;;;;;13.90;2.22;;;9.70;99.90;;;;;;5077568;28;20103;-71
2022/11/02 00:23:11;;;;;;;9.25;1.45;;;9.70;99.90;;;;;;5077543;28;20417;-71
2022/11/02 00:25:44;;;;;;;9.20;1.55;;;9.80;99.90;;;;;;5077329;28;20060;-71
2022/11/02 00:28:13;;;;;;;16.67;1.90;;;9.80;99.90;;;;;;5077858;28;20024;-71
2022/11/02 00:30:40;;;;;;;11.00;1.63;;;9.90;99.90;;;;;;5077297;28;20044;-71
2022/11/02 00:33:08;;;;;;;10.07;1.50;;;9.90;99.90;;;;;;5077878;28;20048;-71
2022/11/02 00:35:36;;;;;;;8.25;2.08;;;9.90;99.90;;;;;;5042843;28;20036;-71
2022/11/02 00:38:04;;;;;;;10.43;2.58;;;9.90;99.90;;;;;;5077573;28;20078;-71
2022/11/02 00:40:32;;;;;;;7.80;1.40;;;9.90;99.90;;;;;;5076821;28;20016;-71
2022/11/02 00:42:59;;;;;;;9.93;1.02;;;9.90;99.90;;;;;;5077138;28;20425;-72
2022/11/02 00:45:26;;;;;;;9.18;2.55;;;9.90;99.90;;;;;;5059839;28;20032;-71
2022/11/02 00:47:54;;;;;;;8.57;1.98;;;9.90;99.90;;;;;;5077525;28;20053;-71
2022/11/02 00:50:21;;;;;;;12.30;3.40;;;9.90;99.90;;;;;;5077027;28;20070;-71
2022/11/02 00:52:48;;;;;;;7.45;1.40;;;9.90;99.90;;;;;;5077579;28;20020;-71
2022/11/02 00:55:16;;;;;;;11.13;1.55;;;9.90;99.90;;;;;;5077398;28;20023;-71
2022/11/02 00:57:44;;;;;;;9.07;1.65;;;9.90;99.90;;;;;;5076815;28;20143;-71
2022/11/02 01:00:13;;;;;;;7.18;1.20;;;9.80;99.90;;;;;;5076806;28;20099;-71
2022/11/02 01:02:41;;;;;;;12.00;1.73;;;9.80;99.90;;;;;;5076881;28;20053;-71
2022/11/02 01:05:09;;;;;;;9.23;1.40;;;9.80;99.90;;;;;;5076794;28;20021;-71
2022/11/02 01:07:37;;;;;;;9.07;1.45;;;9.80;99.90;;;;;;5075844;28;20428;-71
2022/11/02 01:10:09;;;;;;;9.68;1.40;;;9.80;99.90;;;;;;5076746;28;20028;-71
2022/11/02 01:12:40;;;;;;;8.50;1.60;;;9.80;99.90;;;;;;5077330;28;20025;-71
2022/11/02 01:15:09;;;;;;;7.13;0.93;;;9.90;99.90;;;;;;5059480;28;20024;-71
2022/11/02 01:17:36;;;;;;;5.35;1.17;;;9.90;99.90;;;;;;5076839;28;20024;-71
2022/11/02 01:20:05;;;;;;;3.60;1.15;;;9.90;99.90;;;;;;5042340;28;20104;-71
2022/11/02 01:22:32;;;;;;;4.70;1.25;;;10.00;99.90;;;;;;5076630;28;20497;-71
2022/11/02 01:24:59;;;;;;;7.78;1.25;;;10.00;99.90;;;;;;5058726;28;20078;-71
2022/11/02 01:27:26;;;;;;;4.53;0.85;;;10.10;99.90;;;;;;5077269;28;20108;-71
2022/11/02 01:29:54;;;;;;;9.75;1.77;;;10.10;99.90;;;;;;5077045;28;20099;-71
2022/11/02 01:32:22;;;;;;;9.70;2.20;;;10.20;99.90;;;;;;5077078;28;20017;-71
2022/11/02 01:34:49;;;;;;;6.55;1.15;;;10.20;99.90;;;;;;5076904;28;20063;-71
2022/11/02 01:37:16;;;;;;;9.30;1.50;;;10.20;99.90;;;;;;5076913;28;20024;-71
2022/11/02 01:39:43;;;;;;;9.88;1.40;;;10.20;99.90;;;;;;5076430;28;20413;-71
2022/11/02 01:42:22;;;;;;;9.32;1.33;;;10.20;99.90;;;;;;5076968;28;20021;-71
2022/11/02 01:44:49;;;;;;;7.45;1.52;;;10.20;99.90;;;;;;5076306;28;20056;-71
2022/11/02 01:47:30;;;;;;;13.57;2.67;;;10.30;99.90;;;;;;5076527;28;20028;-71
2022/11/02 01:50:19;;;;;;;9.07;1.08;;;10.30;99.90;;;;;;5076244;28;20025;-71
2022/11/02 01:52:46;;;;;;;8.10;1.05;;;10.30;99.90;;;;;;5077138;28;20021;-71
2022/11/02 01:55:26;;;;;;;11.90;1.58;;;10.40;99.90;;;;;;5062477;28;20024;-71
2022/11/02 01:58:02;;;;;;;11.65;1.23;;;10.40;99.90;;;;;;5059096;28;20098;-72
2022/11/02 02:00:29;;;;;;;4.28;0.80;;;10.40;99.90;;;;;;5060169;28;20024;-71
2022/11/02 02:03:17;;;;;;;9.13;2.53;;;10.50;99.90;;;;;;5060202;28;20056;-71
2022/11/02 02:05:50;;;;;;;10.00;2.15;;;10.50;99.90;;;;;;5060073;28;20029;-71
2022/11/02 02:08:20;;;;;;;7.80;1.55;;;10.60;99.90;;;;;;5060059;28;20489;-72
2022/11/02 02:10:47;;;;;;;5.40;1.05;;;10.60;99.90;;;;;;5060056;28;20025;-71
2022/11/02 02:13:15;;;;;;;4.88;1.25;;;10.60;99.90;;;;;;5060556;28;20429;-71
2022/11/02 02:16:06;;;;;;;12.82;1.70;;;10.70;99.90;;;;;;5059986;28;20032;-71
2022/11/02 02:18:57;;;;;;;8.55;1.75;;;10.70;99.90;;;;;;5060654;28;20100;-71
2022/11/02 02:21:49;;;;;;;8.82;1.42;;;10.80;99.90;;;;;;5059786;28;20096;-72
2022/11/02 02:24:34;;;;;;;7.45;1.60;;;10.80;99.90;;;;;;5060549;28;20027;-71
2022/11/02 02:27:23;;;;;;;10.45;1.80;;;10.90;99.90;;;;;;5060189;28;20095;-71
2022/11/02 02:30:09;;;;;;;6.82;0.90;;;10.80;99.90;;;;;;5059880;28;20025;-71
2022/11/02 02:32:58;;;;;;;14.82;1.58;;;10.70;99.90;;;;;;5060122;28;20086;-71
2022/11/02 02:35:41;;;;;;;11.60;1.88;;;10.60;99.90;;;;;;5059907;28;20352;-71
2022/11/02 02:38:22;;;;;;;5.05;1.27;;;10.50;99.90;;;;;;5059813;28;20367;-71
2022/11/02 02:41:06;;;;;;;9.35;1.23;;;10.40;99.90;;;;;;5059519;28;20356;-71
2022/11/02 02:43:42;;;;;;;12.65;1.27;;;10.30;99.90;;;;;;5059662;28;20013;-71
2022/11/02 02:46:21;;;;;;;8.98;2.25;;;10.40;99.90;;;;;;5059880;28;20018;-71
2022/11/02 02:48:50;;;;;;;5.47;1.20;;;10.40;99.90;;;;;;5059394;28;20025;-71
2022/11/02 02:51:31;;;;;;;10.85;1.80;;;10.40;99.90;;;;;;5059875;28;20052;-71
2022/11/02 02:54:23;;;;;;;9.73;1.23;;;10.40;99.90;;;;;;5059634;28;20025;-71
2022/11/02 02:56:58;;;;;;;10.50;1.92;;;10.50;99.90;;;;;;5074862;28;20021;-71
2022/11/02 02:59:40;;;;;;;6.40;1.42;;;10.40;99.90;;;;;;5059760;28;20112;-71
2022/11/02 03:02:24;;;;;;;9.95;1.48;;;10.30;99.90;;;;;;5059591;28;20021;-71
2022/11/02 03:04:52;;;;;;;9.02;1.58;;;10.30;99.90;;;;;;5058817;28;20025;-71
2022/11/02 03:07:33;;;;;;;6.93;1.10;;;10.10;99.90;;;;;;5059578;28;20024;-71
2022/11/02 03:10:16;;;;;;;8.90;1.02;;;10.10;99.90;;;;;;5058999;28;20176;-71
2022/11/02 03:13:01;;;;;;;15.20;1.48;;;10.00;99.90;;;;;;5059129;28;20029;-71
2022/11/02 03:15:52;;;;;;;10.30;1.80;;;9.90;99.90;;;;;;5058690;28;20025;-71
2022/11/02 03:18:38;;;;;;;8.80;1.38;;;9.90;99.90;;;;;;5059374;28;20013;-71
2022/11/02 03:21:12;;;;;;;;;;;9.90;99.90;;;;;;5059479;28;20068;-71
2022/11/02 03:23:52;;;;;;;6.55;1.25;;;9.90;99.90;;;;;;5059172;28;19905;-71
2022/11/02 03:26:32;;;;;;;9.23;1.98;;;9.90;99.90;;;;;;5058897;28;20017;-71
2022/11/02 03:29:11;;;;;;;11.63;1.77;;;9.90;99.90;;;;;;5058560;28;20021;-71
2022/11/02 03:31:49;;;;;;;10.20;1.27;;;9.90;99.90;;;;;;5058436;28;20017;-71
2022/11/02 03:34:39;;;;;;;8.73;1.73;;;9.90;99.90;;;;;;5058394;28;20036;-71
2022/11/02 03:37:30;;;;;;;6.20;1.40;;;10.00;99.90;;;;;;5058515;28;20488;-71
2022/11/02 03:40:07;;;;;;;6.50;2.17;;;10.00;99.90;;;;;;5057559;28;20372;-71
2022/11/02 03:42:36;;;;;;;3.92;1.08;;;10.00;99.90;;;;;;5058505;28;20049;-71
2022/11/02 03:45:13;;;;;;;13.35;2.35;;;10.00;99.90;;;;;;5058774;28;20402;-71
2022/11/02 03:47:45;;;;;;;4.70;1.20;;;10.10;99.90;;;;;;5058542;28;20099;-71
2022/11/02 03:50:19;;;;;;;9.20;2.45;;;10.10;99.90;;;;;;5058778;28;20021;-71
2022/11/02 03:52:55;;;;;;;9.70;1.73;;;10.20;99.90;;;;;;5058568;28;20104;-71
2022/11/02 03:55:39;;;;;;;10.83;2.97;;;10.20;99.90;;;;;;5058605;28;20071;-71
2022/11/02 03:58:10;;;;;;;9.00;1.02;;;10.20;99.90;;;;;;5068255;28;20444;-71
2022/11/02 04:00:45;;;;;;;9.10;1.08;;;10.30;99.90;;;;;;5078222;28;20413;-71
2022/11/02 04:03:14;;;;;;;5.32;1.58;;;10.30;99.90;;;;;;5078280;28;20095;-71
2022/11/02 04:05:41;;;;;;;8.13;1.90;;;10.30;99.90;;;;;;5060088;28;20021;-71
2022/11/02 04:08:23;;;;;;;12.20;2.42;;;10.30;99.90;;;;;;5078132;28;20070;-71
2022/11/02 04:16:22;;;;;;;5.30;1.02;;;10.20;99.90;;;;;;5077244;28;20040;-71
2022/11/02 04:21:35;;;;;;;10.73;2.22;;;10.30;99.90;;;;;;5077589;28;20073;-71
2022/11/02 04:26:49;;;;;;;9.32;1.77;;;10.30;99.90;;;;;;5077512;28;20032;-71
2022/11/02 04:29:17;;;;;;;8.85;1.23;;;10.30;99.90;;;;;;5060806;28;20112;-71
2022/11/02 04:31:44;;;;;;;9.85;1.80;;;10.30;99.90;;;;;;5076252;28;20020;-72
2022/11/02 04:34:12;;;;;;;10.20;2.28;;;10.30;99.90;;;;;;5076356;28;20081;-71
2022/11/02 04:36:40;;;;;;;7.22;1.48;;;10.30;99.90;;;;;;5077864;28;20013;-71
2022/11/02 04:39:07;;;;;;;12.57;1.63;;;10.40;99.90;;;;;;5077446;28;20056;-71
2022/11/02 04:41:41;;;;;;;8.93;1.85;;;10.30;99.90;;;;;;5077753;28;20078;-71
2022/11/02 04:44:13;;;;;;;6.80;1.30;;;10.30;99.90;;;;;;5059440;28;20025;-71
2022/11/02 04:46:41;;;;;;;7.47;1.17;;;10.30;99.90;;;;;;5077187;28;20416;-71
2022/11/02 04:49:10;;;;;;;6.95;1.77;;;10.20;99.90;;;;;;5077003;28;20020;-71
2022/11/02 04:51:39;;;;;;;10.13;1.45;;;10.30;99.90;;;;;;5077069;28;20028;-71
2022/11/02 04:54:06;;;;;;;8.27;1.63;;;10.20;99.90;;;;;;5077664;28;20151;-71
2022/11/02 04:56:33;;;;;;;9.13;1.50;;;10.20;99.90;;;;;;5077492;28;20016;-71
2022/11/02 04:59:02;;;;;;;11.55;1.35;;;10.20;99.90;;;;;;5076822;28;20111;-71
2022/11/02 05:01:30;;;;;;;7.50;1.38;;;10.20;99.90;;;;;;5076797;28;20020;-71
2022/11/02 05:03:57;;;;;;;7.60;1.23;;;10.20;99.90;;;;;;5077426;28;20036;-71
2022/11/02 05:06:25;;;;;;;7.05;1.17;;;10.20;99.90;;;;;;5076759;28;20035;-71
2022/11/02 05:08:52;;;;;;;5.47;1.30;;;10.30;99.90;;;;;;5077002;28;20021;-71
2022/11/02 05:11:19;;;;;;;9.52;1.73;;;10.30;99.90;;;;;;5058938;28;20111;-71
2022/11/02 05:13:47;;;;;;;7.40;1.10;;;10.30;99.90;;;;;;5076714;28;20132;-71
2022/11/02 05:16:16;;;;;;;8.50;1.60;;;10.30;99.90;;;;;;5076548;28;20048;-71
2022/11/02 05:18:43;;;;;;;5.32;1.23;;;10.40;99.90;;;;;;5076739;28;20021;-71
2022/11/02 05:21:11;;;;;;;8.68;1.27;;;10.30;99.90;;;;;;5059258;28;20012;-71
2022/11/02 05:23:39;;;;;;;5.07;1.10;;;10.40;99.90;;;;;;5076617;28;20021;-71
2022/11/02 05:26:11;;;;;;;4.13;1.20;;;10.30;99.90;;;;;;5076550;28;20020;-71
2022/11/02 05:28:39;;;;;;;6.00;1.42;;;10.30;99.90;;;;;;5076761;28;20020;-71
2022/11/02 05:31:06;;;;;;;13.38;1.98;;;10.30;99.90;;;;;;5058590;28;20443;-72
2022/11/02 05:33:34;;;;;;;8.65;1.65;;;10.30;99.90;;;;;;5076532;28;20104;-71
2022/11/02 05:36:02;;;;;;;8.07;1.42;;;10.30;99.90;;;;;;5076670;28;20077;-71
2022/11/02 05:38:30;;;;;;;11.70;1.40;;;10.30;99.90;;;;;;5059268;28;20489;-71
2022/11/02 05:40:59;;;;;;;10.23;2.38;;;10.30;99.90;;;;;;5076701;28;20024;-71
2022/11/02 05:43:27;;;;;;;6.45;1.75;;;10.30;99.90;;;;;;5077037;28;20082;-71
2022/11/02 05:45:56;;;;;;;5.63;1.13;;;10.30;99.90;;;;;;5076892;28;20048;-71
2022/11/02 05:48:24;;;;;;;9.65;1.50;;;10.40;99.90;;;;;;5076542;28;20094;-71
2022/11/02 05:51:02;;;;;;;9.85;1.20;;;10.40;99.90;;;;;;5076345;28;20502;-71
2022/11/02 05:53:31;;;;;;;6.72;1.20;;;10.40;99.90;;;;;;5076343;28;20035;-72
2022/11/02 05:56:00;;;;;;;11.60;2.10;;;10.40;99.90;;;;;;5076006;28;20494;-71
2022/11/02 05:58:28;;;;;;;8.18;1.35;;;10.40;99.90;;;;;;5075976;28;20097;-71
2022/11/02 06:01:00;;;;;;;14.52;1.95;;;10.50;99.90;;;;;;5076999;28;20365;-71
2022/11/02 06:03:28;;;;;;;9.40;2.42;;;10.50;99.90;;;;;;5076447;28;20086;-71
2022/11/02 06:06:03;;;;;;;5.57;1.25;;;10.60;99.90;;;;;;5076203;28;20108;-71
2022/11/02 06:08:35;;;;;;;10.93;2.17;;;10.70;99.90;;;;;;5076763;28;20028;-71
2022/11/02 06:11:10;;;;;;;4.82;0.90;;;10.80;99.90;;;;;;5076162;28;20041;-71
2022/11/02 06:13:39;;;;;;;7.50;1.30;;;10.90;99.90;;;;;;5076286;28;20033;-71
2022/11/02 06:16:14;;;;;;;8.45;1.67;;;10.90;99.90;;;;;;5058181;28;20437;-72
2022/11/02 06:18:42;;;;;;;8.40;1.17;;;11.00;99.90;;;;;;5075773;28;20029;-72
2022/11/02 06:21:10;;;;;;;6.50;1.17;;;11.00;99.90;;;;;;5076556;28;20430;-72
2022/11/02 06:23:38;;;;;;;8.32;1.33;;;10.90;99.90;;;;;;5076740;28;20021;-72
2022/11/02 06:26:05;;;;;;;4.50;1.00;;;10.90;99.90;;;;;;5075908;28;20082;-72
2022/11/02 06:28:33;;;;;;;11.10;1.30;;;11.00;99.90;;;;;;5076574;28;20021;-72
2022/11/02 06:31:00;;;;;;;8.48;1.10;;;10.90;99.90;;;;;;5075850;28;20413;-72
2022/11/02 06:33:28;;;;;;;6.10;1.40;;;10.90;99.90;;;;;;5076092;28;20459;-72
2022/11/02 06:35:57;;;;;;;12.88;1.60;;;10.90;99.90;;;;;;5075789;28;20024;-73
2022/11/02 06:38:24;;;;;;;6.68;1.40;;;10.90;99.90;;;;;;5075953;28;20070;-72
2022/11/02 06:41:02;;;;;;;5.35;1.90;;;11.00;99.90;;;;;;5079496;28;20107;-72
2022/11/02 06:43:29;;;;;;;4.43;1.13;;;11.00;99.90;;;;;;5079659;28;20016;-72
2022/11/02 06:45:57;;;;;;;6.70;1.60;;;11.10;99.90;;;;;;5079244;28;20154;-72
2022/11/02 06:48:27;;;;;;;6.00;1.35;;;11.10;99.90;;;;;;5080008;28;20397;-72
2022/11/02 06:50:56;;;;;;;6.75;1.30;;;11.20;99.90;;;;;;5079340;28;20021;-72
2022/11/02 06:53:24;;;;;;;8.85;1.98;;;11.20;99.90;;;;;;5079460;28;20020;-71
2022/11/02 06:55:55;;;;;;;15.68;2.25;;;11.20;99.90;;;;;;5079539;28;20052;-71
2022/11/02 06:58:23;;;;;;;9.13;1.73;;;11.20;99.90;;;;;;5079045;28;20041;-71
2022/11/02 07:00:58;;;;;;;9.30;1.83;;;11.10;99.90;;;;;;5079290;28;20020;-71
2022/11/02 07:03:29;;;;;;;5.43;1.45;;;11.20;99.90;;;;;;5079202;28;20115;-72
2022/11/02 07:05:57;;;;;;;6.20;1.10;;;11.20;99.90;;;;;;5079573;28;20485;-71
2022/11/02 07:08:25;;;;;;;8.23;1.63;;;11.30;99.90;;;;;;5079379;28;20028;-71
2022/11/02 07:10:53;;;;;;;9.80;2.50;;;11.30;99.90;;;;;;5079007;28;20036;-71
2022/11/02 07:13:20;;;;;;;5.80;1.33;;;11.40;99.90;;;;;;5079246;28;20417;-71
2022/11/02 07:15:53;;;;;;;8.40;1.40;;;11.50;99.90;;;;;;5078803;28;20055;-71
2022/11/02 07:18:21;;;;;;;7.35;1.10;;;11.50;99.90;;;;;;5079458;28;20021;-72
2022/11/02 07:20:48;;;;;;;7.95;2.50;;;11.60;99.90;;;;;;5078827;28;20024;-72
2022/11/02 07:23:16;;;;;;;9.52;1.30;;;11.60;99.90;;;;;;5079531;28;20094;-73
2022/11/02 07:25:44;;;;;;;7.93;1.48;;;11.70;99.90;;;;;;5078719;28;20020;-73
2022/11/02 07:28:11;;;;;;;4.93;1.20;;;11.70;99.90;;;;;;5079004;28;20101;-73
2022/11/02 07:30:38;;;;;;;7.95;1.42;;;11.80;99.90;;;;;;5078563;28;20087;-72
2022/11/02 07:33:06;;;;;;;7.72;1.42;;;11.80;99.90;;;;;;5078776;28;20432;-71
2022/11/02 07:35:34;;;;;;;7.05;1.38;;;11.90;99.90;;;;;;5078488;28;20033;-72
2022/11/02 07:38:05;;;;;;;7.40;1.55;;;11.90;99.90;;;;;;5079061;28;20027;-72
2022/11/02 07:40:34;;;;;;;5.93;1.70;;;12.00;99.90;;;;;;5078387;28;20021;-73
2022/11/02 07:43:03;;;;;;;9.70;1.45;;;12.00;99.90;;;;;;5079148;28;20294;-72
2022/11/02 07:45:31;;;;;;;9.70;1.35;;;12.10;99.90;;;;;;5078283;28;20100;-73
2022/11/02 07:47:58;;;;;;;6.57;1.50;;;12.20;99.90;;;;;;5078852;28;20020;-73
2022/11/02 07:50:26;;;;;;;8.45;1.30;;;12.20;99.90;;;;;;5077493;28;20016;-72
2022/11/02 07:52:58;;;;;;;12.88;2.40;;;12.30;99.90;;;;;;5078320;28;20111;-72
2022/11/02 07:55:28;;;;;;;12.55;1.40;;;12.30;99.90;;;;;;5078570;28;20031;-71
2022/11/02 07:57:58;;;;;;;9.95;1.45;;;12.40;99.90;;;;;;5077896;28;20048;-71
2022/11/02 08:00:27;;;;;;;6.28;1.45;;;12.50;99.90;;;;;;5077988;28;20310;-70
2022/11/02 08:02:56;;;;;;;3.92;1.05;;;12.50;99.90;;;;;;5078320;28;20086;-71
2022/11/02 08:05:24;;;;;;;13.10;2.33;;;12.50;99.90;;;;;;5077964;28;20027;-71
2022/11/02 08:08:04;;;;;;;9.95;1.42;;;12.60;99.90;;;;;;5078208;28;20017;-71
2022/11/02 08:10:32;;;;;;;8.10;1.77;;;12.60;99.90;;;;;;5077860;28;20075;-71
2022/11/02 08:12:59;;;;;;;13.00;2.33;;;12.70;99.90;;;;;;5077958;28;20028;-71
2022/11/02 08:15:27;;;;;;;8.13;1.40;;;12.70;99.90;;;;;;5078006;28;20025;-71
2022/11/02 08:18:15;;;;;;;9.40;1.33;;;12.80;99.90;;;;;;5059998;28;20016;-71
2022/11/02 08:20:42;;;;;;;7.20;1.17;;;12.80;99.90;;;;;;5077937;28;20016;-72
2022/11/02 08:23:10;;;;;;;5.32;1.23;;;12.90;99.90;;;;;;5060578;28;20055;-71
2022/11/02 08:25:39;;;;;;;8.52;1.30;;;12.90;99.90;;;;;;5077539;28;20032;-73
2022/11/02 08:28:15;;;;;;;11.55;1.92;;;12.90;99.90;;;;;;5077459;28;20032;-71
2022/11/02 08:30:43;;;;;;;8.00;1.00;;;13.00;99.90;;;;;;5077484;28;20492;-71
2022/11/02 08:33:12;;;;;;;7.35;1.48;;;13.00;99.90;;;;;;5078238;28;20416;-71
2022/11/02 08:35:41;;;;;;;12.52;2.20;;;13.10;99.90;;;;;;5077149;28;20111;-72
2022/11/02 08:38:09;;;;;;;8.10;2.80;;;13.20;99.90;;;;;;5077623;28;20092;-71
2022/11/02 08:40:36;;;;;;;12.88;1.70;;;13.20;99.90;;;;;;5077245;28;20091;-71
2022/11/02 08:43:06;;;;;;;15.18;2.40;;;13.20;99.90;;;;;;5060010;28;20025;-71
2022/11/02 08:45:34;;;;;;;12.40;1.58;;;13.20;99.90;;;;;;5077088;28;20020;-71
2022/11/02 08:48:02;;;;;;;7.22;1.15;;;13.30;99.90;;;;;;5077387;28;20435;-71
2022/11/02 08:50:29;;;;;;;12.00;2.33;;;13.40;99.90;;;;;;5077075;28;20028;-71
2022/11/02 08:52:57;;;;;;;10.45;1.67;;;13.40;99.90;;;;;;5077346;28;20027;-71
2022/11/02 08:55:24;;;;;;;5.40;1.00;;;13.40;99.90;;;;;;5059207;28;20111;-71
2022/11/02 08:57:57;;;;;;;5.68;1.52;;;13.30;99.90;;;;;;5076847;28;20522;-71
2022/11/02 09:00:35;;;;;;;8.82;1.80;;;13.30;99.90;;;;;;5077353;28;20025;-71
2022/11/02 09:03:07;;;;;;;15.77;2.38;;;13.20;99.90;;;;;;5075524;28;20025;-73
2022/11/02 09:05:37;;;;;;;5.32;1.70;;;13.20;99.90;;;;;;5076866;28;20021;-71
2022/11/02 09:08:07;;;;;;;7.55;1.90;;;13.20;99.90;;;;;;5077563;28;20055;-71
2022/11/02 09:10:35;;;;;;;11.65;1.65;;;13.30;99.90;;;;;;5076775;28;20033;-70
2022/11/02 09:13:05;;;;;;;11.75;1.77;;;13.40;99.90;;;;;;5076735;28;20028;-71
2022/11/02 09:15:35;;;;;;;6.70;1.30;;;13.30;99.90;;;;;;5076560;28;20024;-71
2022/11/02 09:18:03;;;;;;;5.07;1.20;;;13.40;99.90;;;;;;5077682;28;20017;-71
2022/11/02 09:20:30;;;;;;;6.72;1.52;;;13.40;99.90;;;;;;5076636;28;20025;-73
2022/11/02 09:22:58;;;;;;;13.88;1.63;;;13.40;99.90;;;;;;5076653;28;20025;-73
2022/11/02 09:25:26;;;;;;;11.57;1.38;;;13.50;99.90;;;;;;5076690;28;20035;-72
2022/11/02 09:27:57;;;;;;;5.47;1.23;;;13.40;99.90;;;;;;5076733;28;20032;-71
2022/11/02 09:30:27;;;;;;;13.95;1.40;;;13.40;99.90;;;;;;5076527;28;20024;-72
2022/11/02 09:32:59;;;;;;;8.55;1.45;;;13.40;99.90;;;;;;5076890;28;20020;-71
2022/11/02 09:35:28;;;;;;;7.57;1.30;;;13.40;99.90;;;;;;5076431;28;20459;-72
2022/11/02 09:37:56;;;;;;;5.78;1.20;;;13.40;99.90;;;;;;5076841;28;20155;-71
2022/11/02 09:40:26;;;;;;;5.75;1.23;;;13.40;99.90;;;;;;5059417;28;20028;-70
2022/11/02 09:43:13;;;;;;;7.78;1.35;;;13.30;99.90;;;;;;5058618;28;20328;-70
2022/11/02 09:46:03;;;;;;;10.52;1.42;;;13.20;99.90;;;;;;5076807;28;20107;-70
2022/11/02 09:48:42;;;;;;;4.47;1.10;;;13.10;99.90;;;;;;5076881;28;20096;-70
2022/11/02 09:51:25;;;;;;;5.70;1.55;;;13.20;99.90;;;;;;5076344;28;20024;-70
2022/11/02 09:54:19;;;;;;;9.30;2.35;;;13.30;99.90;;;;;;5076384;28;20028;-70
2022/11/02 09:56:48;;;;;;;7.32;1.27;;;13.40;99.90;;;;;;5076736;28;20156;-70
2022/11/02 09:59:24;;;;;;;4.38;1.10;;;13.60;99.90;;;;;;5075897;28;20044;-70
2022/11/02 10:02:07;;;;;;;6.45;1.40;;;13.60;99.90;;;;;;5076215;28;20024;-70
2022/11/02 10:04:44;;;;;;;4.45;1.23;;;13.60;99.90;;;;;;5076244;28;20025;-69
2022/11/02 10:07:36;;;;;;;5.55;1.75;;;13.60;99.90;;;;;;5058358;28;20367;-69
2022/11/02 10:10:25;;;;;;;15.93;1.60;;;13.60;99.90;;;;;;5076172;28;20016;-69
2022/11/02 10:13:07;;;;;;;6.15;1.13;;;13.50;99.90;;;;;;5076130;28;20047;-69
2022/11/02 10:15:41;;;;;;;4.32;1.33;;;13.40;99.90;;;;;;5079341;28;20052;-69
2022/11/02 10:18:20;;;;;;;8.48;1.20;;;13.40;99.90;;;;;;5062357;28;20320;-69
2022/11/02 10:20:55;;;;;;;5.97;1.05;;;13.40;99.90;;;;;;5080491;28;20074;-69
2022/11/02 10:23:39;;;;;;;14.13;1.50;;;13.40;99.90;;;;;;5080118;28;20428;-69
2022/11/02 10:26:16;;;;;;;10.02;1.48;;;13.50;99.90;;;;;;5079843;28;20028;-69
2022/11/02 10:28:47;;;;;;;;;;;13.50;99.90;;;;;;5080837;28;20069;-69
2022/11/02 10:31:47;;;;;;;9.02;1.10;;;13.50;99.90;;;;;;5079719;28;19944;-69
2022/11/02 10:34:30;;;;;;;10.95;1.73;;;13.40;99.90;;;;;;5046783;28;20044;-69
2022/11/02 10:37:04;;;;;;;6.63;1.10;;;13.50;99.90;;;;;;5079933;28;20174;-69
2022/11/02 10:39:50;;;;;;;6.82;1.40;;;13.60;99.90;;;;;;5080142;28;20025;-69
2022/11/02 10:42:50;;;;;;;10.63;1.85;;;13.80;99.90;;;;;;5080162;28;20113;-69
2022/11/02 10:45:42;;;;;;;9.05;1.70;;;14.00;99.90;;;;;;5079638;28;20024;-69
2022/11/02 10:48:33;;;;;;;8.50;1.40;;;14.00;99.90;;;;;;5080126;28;20028;-70
2022/11/02 10:51:11;;;;;;;3.67;1.25;;;14.00;99.90;;;;;;5079288;28;20050;-69
2022/11/02 10:53:52;;;;;;;8.45;1.05;;;13.90;99.90;;;;;;5079663;28;20078;-69
2022/11/02 10:56:31;;;;;;;7.97;1.20;;;13.80;99.90;;;;;;5079231;28;20025;-71
2022/11/02 10:59:16;;;;;;;6.97;1.38;;;13.70;99.90;;;;;;5058018;28;20049;-71
2022/11/02 11:01:58;;;;;;;8.77;1.10;;;13.60;99.80;;;;;;5059135;28;20040;-69
2022/11/02 11:04:31;;;;;;;4.15;0.80;;;13.50;99.90;;;;;;5059100;28;20100;-70
2022/11/02 11:07:18;;;;;;;3.83;1.63;;;13.30;99.90;;;;;;5059151;28;20025;-70
2022/11/02 11:09:54;;;;;;;5.70;1.48;;;13.10;99.90;;;;;;5059600;28;20025;-71
2022/11/02 11:12:39;;;;;;;4.55;1.10;;;12.90;99.90;;;;;;5058984;28;20079;-71
2022/11/02 11:15:20;;;;;;;2.45;0.77;;;12.80;99.90;;;;;;5059020;28;20444;-71
2022/11/02 11:17:48;;;;;;;3.47;0.85;;;12.70;99.90;;;;;;5072776;28;20035;-71
2022/11/02 11:20:33;;;;;;;8.20;1.20;;;12.70;99.90;;;;;;5059370;28;20040;-71
2022/11/02 11:23:24;;;;;;;9.25;1.80;;;12.70;99.90;;;;;;5058753;28;20013;-71
2022/11/02 11:26:00;;;;;;;5.53;1.15;;;12.70;99.90;;;;;;5057509;28;20029;-71
2022/11/02 11:28:52;;;;;;;4.50;0.85;;;12.80;99.90;;;;;;5057541;28;20024;-71
2022/11/02 11:31:20;;;;;;;10.68;1.45;;;13.00;99.90;;;;;;5058685;28;20036;-71
2022/11/02 11:33:52;;;;;;;8.27;0.93;;;13.10;99.90;;;;;;5058758;28;20059;-72
2022/11/02 11:36:29;;;;;;;13.27;1.60;;;13.30;99.90;;;;;;5058519;28;20090;-70
2022/11/02 11:39:03;;;;;;;5.45;1.13;;;13.50;99.90;;;;;;5059118;28;20021;-69
2022/11/02 11:41:33;;;;;;;8.82;1.75;;;13.60;99.90;;;;;;5059010;28;20017;-71
2022/11/02 11:44:01;;;;;;;6.72;1.30;;;13.70;99.90;;;;;;5058628;28;20100;-71
2022/11/02 11:46:54;;;;;;;7.50;1.80;;;13.80;99.90;;;;;;5058406;28;20464;-71
2022/11/02 11:49:28;;;;;;;5.38;1.08;;;13.90;99.90;;;;;;5057219;28;20029;-71
2022/11/02 11:51:57;;;;;;;10.57;1.50;;;14.00;99.80;;;;;;5058954;28;20104;-72
2022/11/02 11:54:27;;;;;;;12.32;2.08;;;14.20;99.90;;;;;;5058111;28;20025;-70
2022/11/02 11:56:59;;;;;;;7.88;1.58;;;14.30;99.70;;;;;;5058699;28;20032;-69
2022/11/02 11:59:50;;;;;;;7.47;1.10;;;14.40;99.40;;;;;;5058166;28;20492;-69
2022/11/02 12:02:26;;;;;;;8.52;1.40;;;14.50;98.20;;;;;;5058127;28;20040;-68
2022/11/02 12:05:16;;;;;;;9.00;1.58;;;14.40;98.20;;;;;;5058564;28;20147;-70
2022/11/02 12:08:04;;;;;;;7.13;1.77;;;14.40;98.30;;;;;;5058343;28;20032;-71
2022/11/02 12:10:56;;;;;;;6.38;1.65;;;14.30;98.40;;;;;;5056763;28;20333;-71
2022/11/02 12:14:02;;;;;;;8.57;1.33;;;14.30;98.10;;;;;;5058582;28;20044;-71
2022/11/02 12:16:54;;;;;;;7.05;1.38;;;14.30;97.70;;;;;;5057665;28;20025;-73
2022/11/02 12:19:43;;;;;;;6.63;1.30;;;14.30;97.30;;;;;;5058281;28;20017;-69
2022/11/02 12:22:20;;;;;;;8.82;1.30;;;14.20;95.50;;;;;;5058381;28;20086;-69
2022/11/02 12:25:03;;;;;;;9.60;2.42;;;14.10;95.70;;;;;;5058144;28;20025;-69
2022/11/02 12:27:58;;;;;;;7.20;1.10;;;14.00;96.00;;;;;;5058172;28;20032;-69
2022/11/02 12:30:41;;;;;;;6.65;1.45;;;14.00;96.30;;;;;;5057718;28;20017;-69
2022/11/02 12:33:27;;;;;;;9.13;1.42;;;13.90;96.10;;;;;;5058218;28;20036;-69
2022/11/02 12:36:16;;;;;;;7.65;1.92;;;13.90;96.60;;;;;;5057883;28;20025;-69
2022/11/02 12:39:05;;;;;;;8.15;1.35;;;13.90;96.20;;;;;;5057425;28;20025;-70
2022/11/02 12:41:50;;;;;;;3.53;0.80;;;13.80;96.60;;;;;;5057293;28;20052;-69
2022/11/02 12:44:39;;;;;;;7.88;1.92;;;13.80;95.40;;;;;;5057155;28;20021;-71
2022/11/02 12:47:09;;;;;;;6.35;1.27;;;13.80;96.80;;;;;;5056116;28;20017;-71
2022/11/02 12:49:37;;;;;;;4.60;1.30;;;13.90;96.00;;;;;;5057488;28;20017;-70
2022/11/02 12:52:15;;;;;;;2.03;1.00;;;13.80;96.10;;;;;;5057375;28;20104;-71
2022/11/02 12:54:55;;;;;;;3.40;1.20;;;13.90;96.30;;;;;;5056911;28;20103;-69
2022/11/02 12:57:26;;;;;;;6.32;1.15;;;13.80;96.40;;;;;;5060473;28;20118;-70
2022/11/02 13:00:03;;;;;;;6.97;1.30;;;13.80;96.40;;;;;;5077430;28;20024;-71
2022/11/02 13:02:48;;;;;;;3.22;1.20;;;13.80;96.50;;;;;;5077532;28;20021;-69
2022/11/02 13:05:18;;;;;;;8.07;1.92;;;13.70;96.50;;;;;;5059123;28;20424;-69
2022/11/02 13:07:52;;;;;;;5.47;2.00;;;13.70;96.80;;;;;;5077575;28;20382;-70
2022/11/02 13:10:35;;;;;;;10.38;1.45;;;13.70;96.80;;;;;;5077719;28;20027;-71
2022/11/02 13:13:05;;;;;;;11.75;2.13;;;13.70;97.20;;;;;;5076797;28;20363;-69
2022/11/02 13:15:37;;;;;;;12.77;1.77;;;13.80;97.70;;;;;;5076595;28;20078;-70
2022/11/02 13:18:38;;;;;;;8.48;1.27;;;13.80;97.30;;;;;;5076810;28;20025;-70
2022/11/02 13:21:06;;;;;;;6.05;1.30;;;13.90;97.00;;;;;;5076678;28;20027;-70
2022/11/02 13:23:34;;;;;;;5.28;1.90;;;14.00;96.30;;;;;;5076933;28;20031;-70
2022/11/02 13:26:28;;;;;;;5.65;1.77;;;14.10;96.40;;;;;;5077131;28;20447;-70
2022/11/02 13:29:23;;;;;;;7.93;1.13;;;14.20;96.30;;;;;;5070377;28;20040;-70
2022/11/02 13:31:58;;;;;;;8.23;2.08;;;14.20;96.10;;;;;;5076804;28;20100;-70